Time;durP1;ratioP1;P1;durP2;ratioP2;P2;SDS_P1;SDS_P2;PMS_P1;PMS_P2;Temp;Humidity;BMP_temperature;BMP_pressure;BME280_temperature;BME280_humidity;BME280_pressure;Samples;Min_cycle;Max_cycle;Signal;HPM_P1;HPM_P2
2023/05/17 00:01:54;;;;;;;11.10;3.33;;;;;;;;;;4951837;28;20051;-63
2023/05/17 00:04:27;;;;;;;9.68;3.40;;;;;;;;;;4983426;28;20054;-62
2023/05/17 00:06:58;;;;;;;13.23;3.70;;;;;;;;;;4981298;28;20518;-62
2023/05/17 00:09:29;;;;;;;11.93;3.40;;;;;;;;;;4943274;28;20061;-62
2023/05/17 00:12:02;;;;;;;7.90;2.97;;;;;;;;;;5000468;28;20046;-63
2023/05/17 00:14:33;;;;;;;7.80;3.00;;;;;;;;;;5015103;28;20065;-63
2023/05/17 00:17:05;;;;;;;8.00;3.05;;;;;;;;;;5014922;28;20050;-63
2023/05/17 00:19:37;;;;;;;7.75;3.53;;;;;;;;;;5015019;28;20053;-62
2023/05/17 00:22:08;;;;;;;12.45;3.38;;;;;;;;;;5014789;28;20536;-63
2023/05/17 00:24:40;;;;;;;14.07;4.38;;;;;;;;;;5014844;28;20061;-63
2023/05/17 00:27:11;;;;;;;8.82;3.78;;;;;;;;;;4950241;28;20057;-64
2023/05/17 00:29:44;;;;;;;11.38;3.63;;;;;;;;;;4998058;28;20042;-64
2023/05/17 00:32:15;;;;;;;;;;;;;;;;;;4904145;28;20065;-64
2023/05/17 00:34:48;;;;;;;18.70;3.72;;;;;;;;;;5014810;28;20297;-63
2023/05/17 00:37:19;;;;;;;11.63;3.47;;;;;;;;;;4980134;28;20080;-64
2023/05/17 00:39:52;;;;;;;15.10;3.88;;;;;;;;;;4943990;28;20047;-63
2023/05/17 00:42:25;;;;;;;15.40;3.20;;;;;;;;;;4946877;28;20050;-65
2023/05/17 00:44:56;;;;;;;9.95;4.35;;;;;;;;;;4992486;28;20058;-62
2023/05/17 00:47:27;;;;;;;13.80;3.45;;;;;;;;;;4976993;28;20585;-64
2023/05/17 00:50:03;;;;;;;11.02;3.67;;;;;;;;;;4944461;28;20050;-64
2023/05/17 00:52:35;;;;;;;11.55;3.95;;;;;;;;;;4897348;28;20050;-65
2023/05/17 00:55:08;;;;;;;13.25;3.50;;;;;;;;;;4921217;28;20067;-64
2023/05/17 00:57:41;;;;;;;13.20;3.28;;;;;;;;;;4953574;28;20070;-64
2023/05/17 01:00:13;;;;;;;10.85;3.45;;;;;;;;;;4953212;28;20062;-64
2023/05/17 01:02:47;;;;;;;13.48;4.05;;;;;;;;;;4905511;29;20055;-63
2023/05/17 01:05:18;;;;;;;10.60;3.80;;;;;;;;;;4953293;28;20051;-65
2023/05/17 01:07:50;;;;;;;11.48;4.10;;;;;;;;;;4953257;28;20059;-64
2023/05/17 01:10:24;;;;;;;14.13;3.65;;;;;;;;;;4921400;28;20052;-63
2023/05/17 01:13:32;;;;;;;10.65;3.33;;;;;;;;;;4937372;28;20060;-64
2023/05/17 01:16:30;;;;;;;9.70;3.85;;;;;;;;;;4953278;28;20407;-64
2023/05/17 01:19:07;;;;;;;9.20;3.38;;;;;;;;;;4877494;29;20382;-64
2023/05/17 01:21:55;;;;;;;11.88;3.58;;;;;;;;;;4861853;29;20064;-65
2023/05/17 01:24:52;;;;;;;9.07;3.53;;;;;;;;;;4837302;29;20049;-63
2023/05/17 01:27:26;;;;;;;7.65;3.17;;;;;;;;;;4803767;29;20055;-63
2023/05/17 01:29:59;;;;;;;11.25;3.97;;;;;;;;;;4803628;29;20063;-64
2023/05/17 01:32:33;;;;;;;10.95;4.60;;;;;;;;;;4821251;29;20419;-64
2023/05/17 01:35:05;;;;;;;10.07;4.18;;;;;;;;;;4776845;29;20058;-62
2023/05/17 01:37:39;;;;;;;15.30;4.35;;;;;;;;;;4821761;29;20054;-62
2023/05/17 01:40:12;;;;;;;10.38;4.45;;;;;;;;;;4784870;30;20055;-65
2023/05/17 01:42:48;;;;;;;10.45;5.07;;;;;;;;;;4785156;30;20062;-63
2023/05/17 01:45:27;;;;;;;10.02;4.18;;;;;;;;;;4800061;29;20051;-63
2023/05/17 01:48:28;;;;;;;12.57;4.55;;;;;;;;;;4785440;30;20075;-63
2023/05/17 01:51:00;;;;;;;13.15;4.05;;;;;;;;;;4770684;30;20059;-65
2023/05/17 01:53:42;;;;;;;14.88;3.75;;;;;;;;;;4767370;30;20062;-62
2023/05/17 01:56:21;;;;;;;9.07;3.60;;;;;;;;;;4749555;30;20055;-63
2023/05/17 01:58:53;;;;;;;10.55;3.13;;;;;;;;;;4766609;30;20102;-63
2023/05/17 02:01:27;;;;;;;8.35;3.42;;;;;;;;;;4748601;30;20514;-62
2023/05/17 02:03:58;;;;;;;8.93;3.60;;;;;;;;;;4762009;29;20063;-63
2023/05/17 02:06:32;;;;;;;7.45;3.38;;;;;;;;;;4803208;29;20059;-62
2023/05/17 02:09:02;;;;;;;12.38;3.72;;;;;;;;;;4803140;29;20059;-64
2023/05/17 02:11:33;;;;;;;8.32;3.22;;;;;;;;;;4811499;29;20055;-63
2023/05/17 02:14:03;;;;;;;11.32;3.15;;;;;;;;;;4776104;29;20066;-63
2023/05/17 02:16:34;;;;;;;8.68;3.65;;;;;;;;;;4787842;29;20047;-62
2023/05/17 02:19:07;;;;;;;13.77;3.30;;;;;;;;;;4772768;29;20054;-63
2023/05/17 02:21:39;;;;;;;10.38;3.28;;;;;;;;;;4784709;30;20139;-63
2023/05/17 02:24:10;;;;;;;12.70;3.70;;;;;;;;;;4814864;29;20551;-64
2023/05/17 02:26:41;;;;;;;11.43;3.47;;;;;;;;;;4784816;29;20063;-64
2023/05/17 02:29:12;;;;;;;14.63;4.40;;;;;;;;;;4798646;29;20419;-63
2023/05/17 02:31:42;;;;;;;11.15;4.35;;;;;;;;;;4820727;29;20532;-63
2023/05/17 02:34:12;;;;;;;16.77;6.45;;;;;;;;;;4817447;29;20056;-63
2023/05/17 02:36:43;;;;;;;9.93;4.95;;;;;;;;;;4849249;29;20064;-64
2023/05/17 02:39:13;;;;;;;12.57;4.60;;;;;;;;;;4857501;29;20069;-66
2023/05/17 02:41:43;;;;;;;11.32;4.43;;;;;;;;;;4857336;29;20080;-63
2023/05/17 02:44:14;;;;;;;9.10;4.00;;;;;;;;;;4857243;29;20057;-63
2023/05/17 02:46:45;;;;;;;8.68;3.65;;;;;;;;;;4826394;29;20105;-63
2023/05/17 02:49:15;;;;;;;9.25;3.55;;;;;;;;;;4866827;29;20060;-63
2023/05/17 02:51:46;;;;;;;10.55;4.55;;;;;;;;;;4838580;29;20054;-62
2023/05/17 02:54:16;;;;;;;15.00;3.83;;;;;;;;;;4804936;29;20442;-62
2023/05/17 02:56:48;;;;;;;12.52;3.55;;;;;;;;;;4810739;29;20055;-63
2023/05/17 02:59:18;;;;;;;14.98;3.97;;;;;;;;;;4801849;29;20050;-63
2023/05/17 03:01:50;;;;;;;12.48;4.00;;;;;;;;;;4802454;29;20066;-62
2023/05/17 03:04:20;;;;;;;9.25;3.92;;;;;;;;;;4780728;29;20059;-62
2023/05/17 03:06:50;;;;;;;9.18;3.35;;;;;;;;;;4812216;29;20073;-63
2023/05/17 03:09:21;;;;;;;10.98;3.22;;;;;;;;;;4787243;29;20597;-64
2023/05/17 03:11:52;;;;;;;16.30;4.78;;;;;;;;;;4783746;29;20538;-63
2023/05/17 03:14:27;;;;;;;7.40;3.63;;;;;;;;;;4811401;29;20061;-62
2023/05/17 03:16:57;;;;;;;6.82;3.13;;;;;;;;;;4788968;29;20053;-62
2023/05/17 03:19:28;;;;;;;6.53;2.83;;;;;;;;;;4772602;29;20077;-63
2023/05/17 03:21:58;;;;;;;8.93;3.63;;;;;;;;;;4801519;29;20066;-62
2023/05/17 03:24:29;;;;;;;15.68;3.78;;;;;;;;;;4856909;29;20075;-64
2023/05/17 03:27:01;;;;;;;9.75;3.45;;;;;;;;;;4837992;29;20065;-62
2023/05/17 03:29:32;;;;;;;8.85;3.17;;;;;;;;;;4810162;29;20061;-63
2023/05/17 03:32:03;;;;;;;8.60;3.50;;;;;;;;;;4774111;29;20200;-62
2023/05/17 03:34:33;;;;;;;10.15;3.65;;;;;;;;;;4765996;30;20079;-62
2023/05/17 03:37:03;;;;;;;9.73;3.45;;;;;;;;;;4764956;29;20056;-63
2023/05/17 03:39:34;;;;;;;10.48;3.70;;;;;;;;;;4730496;30;20056;-62
2023/05/17 03:42:05;;;;;;;12.70;3.83;;;;;;;;;;4711644;30;20057;-63
2023/05/17 03:44:36;;;;;;;10.23;3.67;;;;;;;;;;4730324;30;20056;-62
2023/05/17 03:47:06;;;;;;;8.82;3.55;;;;;;;;;;4758735;30;20053;-62
2023/05/17 03:49:36;;;;;;;9.23;4.57;;;;;;;;;;4765680;30;20059;-63
2023/05/17 03:52:07;;;;;;;10.25;3.92;;;;;;;;;;4757007;30;20059;-62
2023/05/17 03:54:38;;;;;;;9.45;3.78;;;;;;;;;;4774752;30;20055;-62
2023/05/17 03:57:08;;;;;;;11.00;3.75;;;;;;;;;;4756519;30;20067;-62
2023/05/17 03:59:39;;;;;;;8.82;3.17;;;;;;;;;;4774699;29;20052;-64
2023/05/17 04:02:10;;;;;;;7.13;3.47;;;;;;;;;;4747906;30;20052;-64
2023/05/17 04:04:40;;;;;;;14.45;4.40;;;;;;;;;;4776477;29;20056;-62
2023/05/17 04:07:10;;;;;;;11.65;3.83;;;;;;;;;;4757463;30;20063;-62
2023/05/17 04:09:41;;;;;;;9.18;3.47;;;;;;;;;;4810866;29;20055;-62
2023/05/17 04:12:11;;;;;;;8.30;3.83;;;;;;;;;;4789149;29;20074;-62
2023/05/17 04:14:41;;;;;;;18.33;3.85;;;;;;;;;;4830622;29;20073;-63
2023/05/17 04:17:13;;;;;;;7.93;3.15;;;;;;;;;;4813490;29;20420;-62
2023/05/17 04:19:46;;;;;;;9.23;3.70;;;;;;;;;;4828749;29;20067;-62
2023/05/17 04:22:16;;;;;;;8.82;4.15;;;;;;;;;;4825446;29;20559;-63
2023/05/17 04:24:46;;;;;;;10.98;3.83;;;;;;;;;;4855789;29;20474;-63
2023/05/17 04:27:16;;;;;;;9.85;3.95;;;;;;;;;;4857519;29;20511;-62
2023/05/17 04:29:48;;;;;;;6.95;3.53;;;;;;;;;;4840823;29;20139;-63
2023/05/17 04:32:19;;;;;;;7.88;4.03;;;;;;;;;;4841182;29;20420;-63
2023/05/17 04:34:50;;;;;;;15.15;3.83;;;;;;;;;;4813537;29;20055;-63
2023/05/17 04:37:21;;;;;;;9.75;3.83;;;;;;;;;;4786589;29;20090;-62
2023/05/17 04:39:55;;;;;;;7.57;3.67;;;;;;;;;;4779439;30;20414;-62
2023/05/17 04:42:26;;;;;;;9.07;3.65;;;;;;;;;;4782656;30;20425;-62
2023/05/17 04:44:59;;;;;;;9.38;3.40;;;;;;;;;;4800617;29;20059;-63
2023/05/17 04:47:30;;;;;;;8.25;3.63;;;;;;;;;;4812035;29;20062;-64
2023/05/17 04:50:01;;;;;;;8.30;4.15;;;;;;;;;;4799349;29;20055;-62
2023/05/17 04:52:35;;;;;;;8.68;3.53;;;;;;;;;;4764176;30;20066;-62
2023/05/17 04:55:06;;;;;;;9.45;3.83;;;;;;;;;;4827686;29;20065;-62
2023/05/17 04:57:37;;;;;;;8.20;3.90;;;;;;;;;;4848287;29;20054;-64
2023/05/17 05:00:09;;;;;;;9.98;3.83;;;;;;;;;;4858584;29;20058;-62
2023/05/17 05:02:42;;;;;;;10.20;3.75;;;;;;;;;;4866153;29;20057;-63
2023/05/17 05:05:13;;;;;;;8.48;3.28;;;;;;;;;;4839489;29;20053;-62
2023/05/17 05:07:45;;;;;;;9.73;4.03;;;;;;;;;;4828832;29;20054;-63
2023/05/17 05:10:17;;;;;;;9.15;3.72;;;;;;;;;;4832927;29;20057;-62
2023/05/17 05:12:47;;;;;;;8.30;4.32;;;;;;;;;;4796165;29;20055;-62
2023/05/17 05:15:18;;;;;;;9.90;4.15;;;;;;;;;;4785803;30;20059;-62
2023/05/17 05:17:54;;;;;;;9.60;3.85;;;;;;;;;;4774549;30;20408;-62
2023/05/17 05:20:25;;;;;;;14.80;4.30;;;;;;;;;;4779103;30;20425;-63
2023/05/17 05:22:57;;;;;;;8.85;3.60;;;;;;;;;;4774845;30;20056;-62
2023/05/17 05:25:28;;;;;;;10.85;3.72;;;;;;;;;;4792668;29;20066;-62
2023/05/17 05:27:58;;;;;;;7.82;3.78;;;;;;;;;;4839721;29;20073;-63
2023/05/17 05:30:31;;;;;;;10.40;4.22;;;;;;;;;;4829319;29;20062;-62
2023/05/17 05:33:02;;;;;;;7.10;3.63;;;;;;;;;;4821636;29;20065;-62
2023/05/17 05:35:32;;;;;;;8.50;3.72;;;;;;;;;;4803444;29;20182;-62
2023/05/17 05:38:03;;;;;;;8.77;3.78;;;;;;;;;;4792920;29;20051;-62
2023/05/17 05:40:35;;;;;;;8.60;4.20;;;;;;;;;;4831037;29;20058;-63
2023/05/17 05:43:05;;;;;;;9.65;3.85;;;;;;;;;;4829452;29;20058;-62
2023/05/17 05:45:35;;;;;;;10.00;4.03;;;;;;;;;;4808219;29;20047;-63
2023/05/17 05:48:07;;;;;;;11.13;4.00;;;;;;;;;;4832344;29;20057;-62
2023/05/17 05:50:44;;;;;;;10.65;3.70;;;;;;;;;;4837169;29;20058;-62
2023/05/17 05:53:14;;;;;;;8.88;3.33;;;;;;;;;;4825191;29;20488;-62
2023/05/17 05:55:54;;;;;;;8.80;3.40;;;;;;;;;;4850925;29;20057;-62
2023/05/17 05:58:25;;;;;;;8.15;3.92;;;;;;;;;;4872522;29;20053;-62
2023/05/17 06:00:56;;;;;;;7.55;3.45;;;;;;;;;;4895001;29;20068;-62
2023/05/17 06:03:26;;;;;;;10.07;4.18;;;;;;;;;;4872165;29;20078;-62
2023/05/17 06:05:57;;;;;;;12.77;4.32;;;;;;;;;;4858050;29;20538;-62
2023/05/17 06:08:27;;;;;;;8.98;3.92;;;;;;;;;;4869119;29;20688;-63
2023/05/17 06:10:58;;;;;;;9.45;4.07;;;;;;;;;;4876101;29;20060;-63
2023/05/17 06:13:28;;;;;;;12.40;4.93;;;;;;;;;;4872064;29;20056;-62
2023/05/17 06:16:01;;;;;;;10.07;4.45;;;;;;;;;;4886551;29;20169;-63
2023/05/17 06:18:32;;;;;;;10.52;4.32;;;;;;;;;;4894848;29;20052;-62
2023/05/17 06:21:02;;;;;;;9.45;4.20;;;;;;;;;;4871215;29;20057;-63
2023/05/17 06:23:32;;;;;;;8.88;3.60;;;;;;;;;;4883607;29;20065;-62
2023/05/17 06:26:02;;;;;;;9.43;4.07;;;;;;;;;;4901118;29;20501;-62
2023/05/17 06:28:33;;;;;;;7.47;3.40;;;;;;;;;;4932540;29;20051;-62
2023/05/17 06:31:03;;;;;;;7.90;3.47;;;;;;;;;;4917680;29;20055;-62
2023/05/17 06:33:33;;;;;;;8.05;3.58;;;;;;;;;;4901223;29;20437;-62
2023/05/17 06:36:03;;;;;;;8.80;3.65;;;;;;;;;;4941965;29;20191;-62
2023/05/17 06:38:34;;;;;;;8.88;4.05;;;;;;;;;;4948285;28;20060;-61
2023/05/17 06:41:05;;;;;;;9.02;3.42;;;;;;;;;;4961572;28;20046;-63
2023/05/17 06:43:35;;;;;;;10.10;3.92;;;;;;;;;;4994322;28;20053;-62
2023/05/17 06:46:05;;;;;;;7.57;3.33;;;;;;;;;;5012205;28;20524;-63
2023/05/17 06:48:36;;;;;;;6.85;3.25;;;;;;;;;;4977770;28;20061;-66
2023/05/17 06:51:06;;;;;;;7.80;3.55;;;;;;;;;;5012597;28;20049;-62
2023/05/17 06:53:37;;;;;;;9.63;3.90;;;;;;;;;;5012392;28;20145;-62
2023/05/17 06:56:07;;;;;;;7.78;3.35;;;;;;;;;;5012221;28;20049;-62
2023/05/17 06:58:37;;;;;;;8.35;3.72;;;;;;;;;;4914146;28;20042;-62
2023/05/17 07:01:07;;;;;;;15.48;3.78;;;;;;;;;;5012141;28;20046;-62
2023/05/17 07:03:37;;;;;;;8.05;3.72;;;;;;;;;;5012347;28;20056;-61
2023/05/17 07:06:07;;;;;;;7.22;3.03;;;;;;;;;;5012140;28;20409;-64
2023/05/17 07:08:39;;;;;;;9.15;3.70;;;;;;;;;;5011963;28;20053;-62
2023/05/17 07:11:09;;;;;;;10.13;3.40;;;;;;;;;;5011994;28;20057;-63
2023/05/17 07:13:40;;;;;;;7.13;3.72;;;;;;;;;;4977396;28;20069;-62
2023/05/17 07:16:11;;;;;;;7.57;3.72;;;;;;;;;;4993922;28;20050;-62
2023/05/17 07:18:41;;;;;;;8.15;3.83;;;;;;;;;;5012021;28;20049;-62
2023/05/17 07:21:11;;;;;;;7.13;3.25;;;;;;;;;;4960813;28;20061;-63
2023/05/17 07:23:41;;;;;;;7.82;3.50;;;;;;;;;;5011988;28;20042;-62
2023/05/17 07:26:11;;;;;;;6.22;3.55;;;;;;;;;;5011617;28;20049;-62
2023/05/17 07:28:43;;;;;;;6.63;3.10;;;;;;;;;;4993339;28;20057;-62
2023/05/17 07:31:13;;;;;;;6.63;3.55;;;;;;;;;;4930614;28;20057;-63
2023/05/17 07:33:43;;;;;;;9.55;3.45;;;;;;;;;;5011950;28;20045;-63
2023/05/17 07:36:13;;;;;;;7.80;3.63;;;;;;;;;;5011598;28;20046;-63
2023/05/17 07:38:44;;;;;;;10.18;3.70;;;;;;;;;;4994705;28;20046;-63
2023/05/17 07:41:15;;;;;;;10.98;3.50;;;;;;;;;;5011655;28;20038;-62
2023/05/17 07:43:46;;;;;;;;;;;;;;;;;;5012301;28;20046;-63
2023/05/17 07:46:17;;;;;;;8.07;3.55;;;;;;;;;;5011615;28;20301;-61
2023/05/17 07:48:48;;;;;;;8.23;3.58;;;;;;;;;;5011662;28;20045;-63
2023/05/17 07:51:18;;;;;;;9.00;4.05;;;;;;;;;;4962222;28;20080;-62
2023/05/17 07:53:48;;;;;;;9.52;4.07;;;;;;;;;;5011561;28;20053;-65
2023/05/17 07:56:18;;;;;;;9.45;3.85;;;;;;;;;;5011352;28;20042;-64
2023/05/17 07:58:48;;;;;;;8.70;3.63;;;;;;;;;;4993457;28;20050;-62
2023/05/17 08:01:18;;;;;;;7.53;3.63;;;;;;;;;;5011401;28;20046;-62
2023/05/17 08:03:49;;;;;;;8.13;3.60;;;;;;;;;;5015247;28;20501;-63
2023/05/17 08:06:20;;;;;;;11.50;4.05;;;;;;;;;;4973810;28;20495;-62
2023/05/17 08:08:50;;;;;;;9.30;3.92;;;;;;;;;;4925528;28;20190;-63
2023/05/17 08:11:20;;;;;;;7.60;3.60;;;;;;;;;;4941407;28;20518;-62
2023/05/17 08:13:50;;;;;;;12.52;4.28;;;;;;;;;;4958097;28;20050;-63
2023/05/17 08:16:20;;;;;;;8.65;3.72;;;;;;;;;;4973687;28;20054;-62
2023/05/17 08:18:50;;;;;;;9.13;3.97;;;;;;;;;;4942167;28;20503;-62
2023/05/17 08:21:21;;;;;;;7.40;3.50;;;;;;;;;;4957622;28;20077;-62
2023/05/17 08:23:51;;;;;;;7.25;3.33;;;;;;;;;;4957680;28;20054;-62
2023/05/17 08:26:21;;;;;;;7.75;3.67;;;;;;;;;;4934776;29;20416;-62
2023/05/17 08:28:51;;;;;;;8.77;3.83;;;;;;;;;;4889240;29;20062;-63
2023/05/17 08:31:21;;;;;;;8.90;3.85;;;;;;;;;;4934857;29;20428;-62
2023/05/17 08:33:52;;;;;;;9.43;3.70;;;;;;;;;;4934911;29;20048;-63
2023/05/17 08:36:23;;;;;;;8.35;3.75;;;;;;;;;;4918628;29;20063;-62
2023/05/17 08:38:53;;;;;;;6.90;3.58;;;;;;;;;;4934808;29;20059;-62
2023/05/17 08:41:23;;;;;;;8.70;3.85;;;;;;;;;;4888492;29;20051;-63
2023/05/17 08:43:55;;;;;;;7.53;3.70;;;;;;;;;;4934857;29;20059;-62
2023/05/17 08:46:27;;;;;;;8.68;4.03;;;;;;;;;;4887658;29;20466;-62
2023/05/17 08:49:00;;;;;;;8.70;3.88;;;;;;;;;;4934816;29;20055;-62
2023/05/17 08:51:32;;;;;;;7.47;3.70;;;;;;;;;;4906234;28;20633;-62
2023/05/17 08:54:04;;;;;;;7.82;3.28;;;;;;;;;;4973133;28;20043;-61
2023/05/17 08:56:41;;;;;;;11.27;3.60;;;;;;;;;;4972767;28;20123;-63
2023/05/17 08:59:12;;;;;;;7.90;3.28;;;;;;;;;;4957839;28;20055;-63
2023/05/17 09:01:44;;;;;;;10.40;4.05;;;;;;;;;;4972862;28;20058;-62
2023/05/17 09:04:15;;;;;;;8.18;3.88;;;;;;;;;;4981702;28;20058;-63
2023/05/17 09:06:45;;;;;;;7.68;3.55;;;;;;;;;;4995691;28;20060;-63
2023/05/17 09:09:17;;;;;;;9.52;3.70;;;;;;;;;;5014313;28;20466;-62
2023/05/17 09:11:47;;;;;;;8.48;3.40;;;;;;;;;;5013933;28;20046;-62
2023/05/17 09:14:18;;;;;;;6.32;3.15;;;;;;;;;;5012855;28;20049;-62
2023/05/17 09:16:56;;;;;;;7.18;3.42;;;;;;;;;;4979217;28;20057;-62
2023/05/17 09:19:27;;;;;;;8.98;3.65;;;;;;;;;;4965130;28;20050;-62
2023/05/17 09:22:01;;;;;;;8.15;3.50;;;;;;;;;;5013829;28;20394;-62
2023/05/17 09:24:31;;;;;;;8.02;3.30;;;;;;;;;;4979363;28;20058;-62
2023/05/17 09:27:03;;;;;;;9.23;3.38;;;;;;;;;;5013723;28;20080;-63
2023/05/17 09:29:34;;;;;;;7.72;3.95;;;;;;;;;;4947072;28;20274;-62
2023/05/17 09:32:32;;;;;;;11.65;3.78;;;;;;;;;;4978634;28;20108;-62
2023/05/17 09:35:03;;;;;;;6.80;3.05;;;;;;;;;;4902079;29;20063;-62
2023/05/17 09:37:38;;;;;;;10.82;3.35;;;;;;;;;;4933386;29;20047;-63
2023/05/17 09:40:09;;;;;;;6.75;3.20;;;;;;;;;;4933669;29;20468;-62
2023/05/17 09:42:39;;;;;;;7.32;2.92;;;;;;;;;;4933579;29;20060;-62
2023/05/17 09:45:10;;;;;;;9.52;3.60;;;;;;;;;;4903142;29;20051;-62
2023/05/17 09:47:40;;;;;;;8.00;3.55;;;;;;;;;;4917464;29;20048;-61
2023/05/17 09:50:17;;;;;;;10.77;3.60;;;;;;;;;;4933407;29;20869;-62
2023/05/17 09:52:50;;;;;;;8.65;3.97;;;;;;;;;;4886008;29;20502;-62
2023/05/17 09:55:26;;;;;;;8.35;3.72;;;;;;;;;;4902366;29;20059;-61
2023/05/17 09:58:03;;;;;;;7.57;3.67;;;;;;;;;;4917054;29;20048;-62
2023/05/17 10:00:33;;;;;;;11.13;3.80;;;;;;;;;;4933334;29;20776;-62
2023/05/17 10:03:05;;;;;;;10.73;3.47;;;;;;;;;;4901619;29;20052;-61
2023/05/17 10:05:36;;;;;;;10.85;3.30;;;;;;;;;;4932989;29;20060;-61
2023/05/17 10:08:06;;;;;;;8.90;3.58;;;;;;;;;;4928988;29;20416;-61
2023/05/17 10:10:37;;;;;;;11.45;4.05;;;;;;;;;;4914181;29;20547;-62
2023/05/17 10:13:11;;;;;;;6.97;3.78;;;;;;;;;;4990130;28;20058;-61
2023/05/17 10:15:42;;;;;;;8.13;3.90;;;;;;;;;;5006088;28;20050;-61
2023/05/17 10:18:14;;;;;;;14.65;4.80;;;;;;;;;;4978461;28;20410;-61
2023/05/17 10:20:46;;;;;;;13.60;5.68;;;;;;;;;;4995450;28;20038;-62
2023/05/17 10:23:17;;;;;;;14.70;5.38;;;;;;;;;;5012526;28;20042;-61
2023/05/17 10:25:49;;;;;;;14.13;5.43;;;;;;;;;;5012227;28;20544;-62
2023/05/17 10:28:21;;;;;;;12.65;5.32;;;;;;;;;;5012429;28;20382;-61
2023/05/17 10:30:53;;;;;;;11.68;5.22;;;;;;;;;;4970612;28;20043;-61
2023/05/17 10:33:26;;;;;;;9.57;4.63;;;;;;;;;;4970861;28;20058;-62
2023/05/17 10:35:58;;;;;;;12.40;4.70;;;;;;;;;;4979876;28;20059;-63
2023/05/17 10:38:28;;;;;;;11.65;4.60;;;;;;;;;;4979261;28;20062;-62
2023/05/17 10:41:13;;;;;;;13.02;5.28;;;;;;;;;;4970699;28;20055;-61
2023/05/17 10:43:43;;;;;;;;;;;;;;;;;;4923489;28;20063;-62
2023/05/17 10:46:21;;;;;;;9.70;4.18;;;;;;;;;;4939187;28;19926;-61
2023/05/17 10:48:53;;;;;;;14.15;5.13;;;;;;;;;;4931948;29;20047;-61
2023/05/17 10:51:30;;;;;;;9.07;4.57;;;;;;;;;;4901357;29;20531;-63
2023/05/17 10:54:09;;;;;;;10.63;4.70;;;;;;;;;;4932177;29;20063;-61
2023/05/17 10:56:51;;;;;;;17.70;5.38;;;;;;;;;;4931993;29;20060;-62
2023/05/17 10:59:28;;;;;;;14.38;6.25;;;;;;;;;;4899605;29;20059;-62
2023/05/17 11:02:06;;;;;;;10.00;5.07;;;;;;;;;;4901469;29;20055;-61
2023/05/17 11:04:37;;;;;;;13.10;5.70;;;;;;;;;;4950463;29;20515;-62
2023/05/17 11:07:17;;;;;;;13.63;6.15;;;;;;;;;;4950482;29;20396;-62
2023/05/17 11:10:05;;;;;;;14.38;6.43;;;;;;;;;;4978496;28;20045;-63
2023/05/17 11:12:43;;;;;;;16.30;5.85;;;;;;;;;;4981574;28;20065;-63
2023/05/17 11:15:15;;;;;;;17.60;6.32;;;;;;;;;;4944770;28;20074;-64
2023/05/17 11:17:55;;;;;;;14.38;5.63;;;;;;;;;;4978458;28;20674;-62
2023/05/17 11:20:25;;;;;;;13.60;5.78;;;;;;;;;;4954872;28;20546;-63
2023/05/17 11:23:05;;;;;;;11.80;6.07;;;;;;;;;;4981098;28;20058;-65
2023/05/17 11:25:39;;;;;;;12.48;6.03;;;;;;;;;;4970088;28;20418;-62
2023/05/17 11:28:21;;;;;;;16.15;6.60;;;;;;;;;;4978247;28;20045;-62
2023/05/17 11:31:00;;;;;;;12.23;6.18;;;;;;;;;;5020380;28;20046;-63
2023/05/17 11:33:43;;;;;;;13.88;5.93;;;;;;;;;;5020698;28;20045;-62
2023/05/17 11:36:21;;;;;;;15.43;6.82;;;;;;;;;;5019642;28;20038;-62
2023/05/17 11:39:14;;;;;;;17.17;7.38;;;;;;;;;;5015853;28;20034;-62
2023/05/17 11:41:48;;;;;;;13.57;5.97;;;;;;;;;;4993195;28;20058;-63
2023/05/17 11:44:25;;;;;;;13.23;5.55;;;;;;;;;;4981998;28;20054;-62
2023/05/17 11:47:08;;;;;;;11.02;5.00;;;;;;;;;;4957429;28;20069;-62
2023/05/17 11:49:39;;;;;;;12.02;5.15;;;;;;;;;;4956912;28;20065;-63
2023/05/17 11:52:09;;;;;;;10.15;4.63;;;;;;;;;;4983020;28;20533;-64
2023/05/17 11:54:41;;;;;;;9.57;4.65;;;;;;;;;;4989221;28;20050;-63
2023/05/17 11:57:15;;;;;;;10.35;4.68;;;;;;;;;;4958243;28;20118;-61
2023/05/17 11:59:45;;;;;;;10.25;4.88;;;;;;;;;;4957611;28;20058;-63
2023/05/17 12:02:27;;;;;;;10.60;4.95;;;;;;;;;;4989098;28;20058;-62
2023/05/17 12:04:58;;;;;;;10.75;5.47;;;;;;;;;;4989213;28;20046;-62
2023/05/17 12:07:28;;;;;;;10.85;4.82;;;;;;;;;;4940555;28;20058;-62
2023/05/17 12:09:58;;;;;;;11.73;5.32;;;;;;;;;;4955564;28;20066;-62
2023/05/17 12:12:29;;;;;;;11.32;5.47;;;;;;;;;;4983095;28;20061;-63
2023/05/17 12:14:59;;;;;;;16.33;6.55;;;;;;;;;;4989213;28;20058;-63
2023/05/17 12:17:40;;;;;;;11.80;6.97;;;;;;;;;;4972044;28;20095;-62
2023/05/17 12:20:11;;;;;;;16.77;7.07;;;;;;;;;;4956527;28;20069;-63
2023/05/17 12:22:56;;;;;;;16.98;7.18;;;;;;;;;;5022394;28;20057;-63
2023/05/17 12:25:28;;;;;;;13.52;6.68;;;;;;;;;;5030697;28;20060;-63
2023/05/17 12:28:21;;;;;;;16.58;7.72;;;;;;;;;;5030749;28;20397;-62
2023/05/17 12:31:01;;;;;;;17.98;9.15;;;;;;;;;;5027602;28;20053;-62
2023/05/17 12:33:35;;;;;;;23.25;9.20;;;;;;;;;;5030802;28;20045;-63
2023/05/17 12:36:07;;;;;;;24.10;14.07;;;;;;;;;;5018353;28;20049;-63
2023/05/17 12:38:42;;;;;;;27.45;15.75;;;;;;;;;;5010657;28;20049;-62
2023/05/17 12:41:15;;;;;;;31.92;16.48;;;;;;;;;;5011186;28;20409;-62
2023/05/17 12:43:45;;;;;;;37.05;18.98;;;;;;;;;;4976874;28;20406;-63
2023/05/17 12:46:19;;;;;;;33.72;15.88;;;;;;;;;;5011037;28;20533;-63
2023/05/17 12:48:52;;;;;;;27.75;14.10;;;;;;;;;;4981164;28;20057;-62
2023/05/17 12:51:23;;;;;;;25.05;13.38;;;;;;;;;;4999995;28;20050;-62
2023/05/17 12:53:55;;;;;;;21.65;12.25;;;;;;;;;;4959523;28;20057;-65
2023/05/17 12:56:28;;;;;;;21.40;11.13;;;;;;;;;;4992331;28;20154;-63
2023/05/17 12:59:05;;;;;;;20.90;8.60;;;;;;;;;;4960283;28;20090;-64
2023/05/17 13:01:48;;;;;;;15.60;7.05;;;;;;;;;;4959680;28;20069;-62
2023/05/17 13:04:20;;;;;;;14.77;7.30;;;;;;;;;;4991921;28;20182;-63
2023/05/17 13:06:57;;;;;;;15.48;7.60;;;;;;;;;;4992502;28;20050;-62
2023/05/17 13:09:32;;;;;;;15.02;7.13;;;;;;;;;;4943116;28;20430;-63
2023/05/17 13:12:06;;;;;;;13.50;5.70;;;;;;;;;;4959473;28;20093;-64
2023/05/17 13:14:47;;;;;;;18.30;7.50;;;;;;;;;;4991827;28;20403;-63
2023/05/17 13:17:35;;;;;;;15.43;7.85;;;;;;;;;;4992031;28;20058;-64
2023/05/17 13:20:07;;;;;;;16.52;7.35;;;;;;;;;;4992179;28;20065;-64
2023/05/17 13:22:56;;;;;;;13.05;6.93;;;;;;;;;;4991804;28;20087;-64
2023/05/17 13:25:26;;;;;;;15.60;7.50;;;;;;;;;;4996471;28;20054;-64
2023/05/17 13:27:57;;;;;;;11.20;5.55;;;;;;;;;;4982891;28;20050;-64
2023/05/17 13:30:27;;;;;;;13.90;6.60;;;;;;;;;;5020342;28;20046;-63
2023/05/17 13:32:58;;;;;;;11.27;5.30;;;;;;;;;;5018538;28;20038;-64
2023/05/17 13:35:28;;;;;;;12.45;6.28;;;;;;;;;;4966047;28;20047;-65
2023/05/17 13:37:58;;;;;;;9.98;5.80;;;;;;;;;;4991258;28;20058;-64
2023/05/17 13:40:29;;;;;;;9.35;5.22;;;;;;;;;;4927459;28;20521;-64
2023/05/17 13:42:59;;;;;;;15.63;5.05;;;;;;;;;;4991154;28;20063;-65
2023/05/17 13:45:30;;;;;;;8.82;4.50;;;;;;;;;;4990644;28;20045;-64
2023/05/17 13:48:00;;;;;;;13.00;6.35;;;;;;;;;;4990170;28;20061;-65
2023/05/17 13:50:30;;;;;;;11.88;5.97;;;;;;;;;;4974751;28;20054;-64
2023/05/17 13:53:01;;;;;;;10.48;5.57;;;;;;;;;;4991227;28;20059;-63
2023/05/17 13:55:31;;;;;;;9.63;4.38;;;;;;;;;;4966927;28;20066;-64
2023/05/17 13:58:02;;;;;;;10.55;5.40;;;;;;;;;;4968585;28;20511;-64
2023/05/17 14:00:32;;;;;;;17.23;4.70;;;;;;;;;;4922361;28;20098;-65
2023/05/17 14:03:02;;;;;;;7.50;3.63;;;;;;;;;;4961274;28;20538;-62
2023/05/17 14:05:35;;;;;;;8.82;4.13;;;;;;;;;;4942442;28;20054;-62
2023/05/17 14:08:07;;;;;;;9.80;4.72;;;;;;;;;;4908088;28;20059;-62
2023/05/17 14:10:37;;;;;;;10.65;5.22;;;;;;;;;;4958583;28;20051;-61
2023/05/17 14:13:08;;;;;;;9.30;5.03;;;;;;;;;;4958522;28;20058;-62
2023/05/17 14:15:39;;;;;;;9.55;3.67;;;;;;;;;;4939008;28;20065;-61
2023/05/17 14:18:12;;;;;;;10.32;4.22;;;;;;;;;;4954432;28;20047;-62
2023/05/17 14:20:42;;;;;;;6.70;3.80;;;;;;;;;;4937898;28;20487;-61
2023/05/17 14:23:13;;;;;;;8.23;4.00;;;;;;;;;;4957655;28;20058;-63
2023/05/17 14:25:43;;;;;;;8.60;4.45;;;;;;;;;;4951934;28;20055;-63
2023/05/17 14:28:16;;;;;;;11.45;3.97;;;;;;;;;;4956854;28;20099;-62
2023/05/17 14:30:47;;;;;;;7.43;3.85;;;;;;;;;;4952069;28;20047;-63
2023/05/17 14:33:17;;;;;;;7.47;3.63;;;;;;;;;;4972550;28;20050;-63
2023/05/17 14:35:48;;;;;;;8.13;4.13;;;;;;;;;;4990440;28;20058;-62
2023/05/17 14:38:21;;;;;;;8.43;3.78;;;;;;;;;;4990304;28;20363;-61
2023/05/17 14:40:51;;;;;;;7.05;3.28;;;;;;;;;;4942247;28;20676;-61
2023/05/17 14:43:21;;;;;;;7.28;2.90;;;;;;;;;;4941599;28;20458;-62
2023/05/17 14:45:51;;;;;;;7.43;3.50;;;;;;;;;;4992741;28;20034;-62
2023/05/17 14:48:22;;;;;;;6.55;2.90;;;;;;;;;;5001767;28;20156;-64
2023/05/17 14:50:52;;;;;;;5.97;3.17;;;;;;;;;;4945156;28;20041;-63
2023/05/17 14:53:27;;;;;;;7.40;3.15;;;;;;;;;;4962225;28;20062;-63
2023/05/17 14:55:58;;;;;;;7.10;3.10;;;;;;;;;;4965033;28;20501;-63
2023/05/17 14:58:28;;;;;;;8.55;2.90;;;;;;;;;;4977357;28;20068;-64
2023/05/17 15:00:58;;;;;;;5.50;2.78;;;;;;;;;;5012236;28;20068;-63
2023/05/17 15:03:35;;;;;;;5.82;2.88;;;;;;;;;;5012053;28;20053;-63
2023/05/17 15:06:06;;;;;;;5.45;2.55;;;;;;;;;;4930604;28;20068;-63
2023/05/17 15:08:39;;;;;;;6.40;2.60;;;;;;;;;;4963721;28;20053;-63
2023/05/17 15:11:10;;;;;;;5.13;2.78;;;;;;;;;;5011604;28;20037;-62